Time;durP1;ratioP1;P1;durP2;ratioP2;P2;SDS_P1;SDS_P2;PMS_P1;PMS_P2;Temp;Humidity;BMP_temperature;BMP_pressure;BME280_temperature;BME280_humidity;BME280_pressure;Samples;Min_cycle;Max_cycle;Signal;HPM_P1;HPM_P2
2022/01/08 00:01:01;;;;;;;;;;;;;;;;;;5101816;28;19919;-70
2022/01/08 00:03:27;;;;;;;;;;;;;;;;;;5083640;28;19909;-69
2022/01/08 00:05:56;;;;;;;;;;;;;;;;;;5084104;28;19919;-70
2022/01/08 00:08:22;;;;;;;;;;;;;;;;;;5083407;28;19916;-69
2022/01/08 00:10:48;;;;;;;;;;;;;;;;;;5083706;28;19912;-69
2022/01/08 00:13:15;;;;;;;;;;;;;;;;;;5100115;28;20388;-70
2022/01/08 00:15:40;;;;;;;;;;;;;;;;;;5099546;28;19934;-66
2022/01/08 00:18:06;;;;;;;;;;;;;;;;;;5099212;28;19909;-67
2022/01/08 00:20:32;;;;;;;;;;;;;;;;;;5079466;28;19916;-65
2022/01/08 00:22:58;;;;;;;;;;;;;;;;;;5098743;28;19978;-68
2022/01/08 00:25:24;;;;;;;;;;;;;;;;;;5081680;28;19931;-67
2022/01/08 00:27:50;;;;;;;;;;;;;;;;;;5081246;28;19908;-67
2022/01/08 00:30:16;;;;;;;;;;;;;;;;;;5076131;28;19923;-68
2022/01/08 00:32:42;;;;;;;;;;;;;;;;;;5079819;28;19919;-68
2022/01/08 00:35:08;;;;;;;;;;;;;;;;;;5090435;22;19901;-64
2022/01/08 00:37:34;;;;;;;;;;;;;;;;;;5114992;28;19920;-64
2022/01/08 00:40:00;;;;;;;;;;;;;;;;;;5096516;28;19950;-64
2022/01/08 00:42:26;;;;;;;;;;;;;;;;;;5114437;28;19943;-63
2022/01/08 00:44:52;;;;;;;;;;;;;;;;;;5114758;28;19960;-64
2022/01/08 00:47:18;;;;;;;;;;;;;;;;;;5115168;28;19908;-65
2022/01/08 00:49:44;;;;;;;;;;;;;;;;;;5114640;28;19949;-65
2022/01/08 00:52:10;;;;;;;;;;;;;;;;;;5096218;28;19943;-65
2022/01/08 00:54:36;;;;;;;;;;;;;;;;;;5095177;28;20392;-66
2022/01/08 00:57:02;;;;;;;;;;;;;;;;;;5096268;28;19916;-65
2022/01/08 00:59:28;;;;;;;;;;;;;;;;;;5114643;28;19908;-63
2022/01/08 01:01:54;;;;;;;;;;;;;;;;;;5095912;28;19912;-64
2022/01/08 01:04:20;;;;;;;;;;;;;;;;;;5114378;28;20282;-64
2022/01/08 01:06:46;;;;;;;;;;;;;;;;;;5096116;28;20003;-64
2022/01/08 01:09:12;;;;;;;;;;;;;;;;;;5114594;28;20348;-66
2022/01/08 01:11:38;;;;;;;;;;;;;;;;;;5113897;28;19908;-65
2022/01/08 01:14:03;;;;;;;;;;;;;;;;;;5114006;28;19961;-65
2022/01/08 01:16:29;;;;;;;;;;;;;;;;;;5095763;28;20003;-64
2022/01/08 01:18:57;;;;;;;;;;;;;;;;;;5095811;28;20206;-63
2022/01/08 01:21:23;;;;;;;;;;;;;;;;;;5114132;28;19908;-64
2022/01/08 01:23:50;;;;;;;;;;;;;;;;;;5095617;28;19915;-64
2022/01/08 01:26:21;;;;;;;;;;;;;;;;;;5095700;28;19907;-65
2022/01/08 01:28:59;;;;;;;;;;;;;;;;;;5113962;28;19908;-65
2022/01/08 01:47:53;;;;;;;;;;;;;;;;;;5113422;28;19914;-64
2022/01/08 01:50:19;;;;;;;;;;;;;;;;;;5113520;28;20267;-63
2022/01/08 01:52:45;;;;;;;;;;;;;;;;;;5113126;28;19908;-64
2022/01/08 01:55:11;;;;;;;;;;;;;;;;;;5113249;28;20345;-64
2022/01/08 01:57:37;;;;;;;;;;;;;;;;;;5095027;28;19907;-64
2022/01/08 02:00:03;;;;;;;;;;;;;;;;;;5094886;28;20326;-65
2022/01/08 02:02:28;;;;;;;;;;;;;;;;;;5094608;28;19960;-65
2022/01/08 02:04:54;;;;;;;;;;;;;;;;;;5113332;28;19915;-64
2022/01/08 02:07:23;;;;;;;;;;;;;;;;;;5112881;28;20334;-64
2022/01/08 02:09:49;;;;;;;;;;;;;;;;;;5094784;28;19947;-65
2022/01/08 02:12:18;;;;;;;;;;;;;;;;;;5094421;28;20320;-64
2022/01/08 02:14:47;;;;;;;;;;;;;;;;;;5094546;28;19953;-66
2022/01/08 02:17:13;;;;;;;;;;;;;;;;;;5094589;28;20356;-64
2022/01/08 02:19:40;;;;;;;;;;;;;;;;;;5113217;28;20017;-64
2022/01/08 02:22:06;;;;;;;;;;;;;;;;;;5112771;28;20254;-65
2022/01/08 02:24:32;;;;;;;;;;;;;;;;;;5112983;28;19952;-65
2022/01/08 02:26:58;;;;;;;;;;;;;;;;;;5112750;28;19914;-65
2022/01/08 02:29:23;;;;;;;;;;;;;;;;;;5112738;28;20378;-65
2022/01/08 02:31:49;;;;;;;;;;;;;;;;;;5112753;28;19908;-65
2022/01/08 02:34:15;;;;;;;;;;;;;;;;;;5112598;28;20018;-64
2022/01/08 02:36:42;;;;;;;;;;;;;;;;;;5112371;28;19958;-64
2022/01/08 02:39:08;;;;;;;;;;;;;;;;;;5113085;28;20351;-64
2022/01/08 02:41:34;;;;;;;;;;;;;;;;;;5094077;28;19908;-62
2022/01/08 02:44:00;;;;;;;;;;;;;;;;;;5112280;28;19930;-64
2022/01/08 02:46:28;;;;;;;;;;;;;;;;;;5112339;28;19961;-65
2022/01/08 02:48:54;;;;;;;;;;;;;;;;;;5112464;28;19937;-64
2022/01/08 02:51:19;;;;;;;;;;;;;;;;;;5094141;28;19908;-65
2022/01/08 02:53:45;;;;;;;;;;;;;;;;;;5112286;28;20493;-64
2022/01/08 02:56:11;;;;;;;;;;;;;;;;;;5112078;28;19970;-64
2022/01/08 02:58:37;;;;;;;;;;;;;;;;;;5112085;28;19908;-64
2022/01/08 03:01:03;;;;;;;;;;;;;;;;;;5093830;28;19908;-64
2022/01/08 03:03:29;;;;;;;;;;;;;;;;;;5093807;28;19963;-64
2022/01/08 03:05:55;;;;;;;;;;;;;;;;;;5112130;28;19912;-64
2022/01/08 03:08:21;;;;;;;;;;;;;;;;;;5112121;28;20336;-65
2022/01/08 03:10:46;;;;;;;;;;;;;;;;;;5112111;28;19915;-66
2022/01/08 03:13:12;;;;;;;;;;;;;;;;;;5111726;28;19960;-66
2022/01/08 03:15:41;;;;;;;;;;;;;;;;;;5111765;28;19913;-64
2022/01/08 03:18:07;;;;;;;;;;;;;;;;;;5092968;28;19968;-64
2022/01/08 03:20:35;;;;;;;;;;;;;;;;;;5111735;28;19908;-67
2022/01/08 03:23:03;;;;;;;;;;;;;;;;;;5112020;28;20344;-66
2022/01/08 03:25:29;;;;;;;;;;;;;;;;;;5111744;28;19908;-65
2022/01/08 03:27:55;;;;;;;;;;;;;;;;;;5111298;28;19916;-66
2022/01/08 03:30:21;;;;;;;;;;;;;;;;;;5111768;28;19908;-65
2022/01/08 03:32:47;;;;;;;;;;;;;;;;;;5093456;28;19908;-66
2022/01/08 03:35:13;;;;;;;;;;;;;;;;;;5112206;28;19912;-64
2022/01/08 03:37:39;;;;;;;;;;;;;;;;;;5111970;28;19912;-65
2022/01/08 03:40:05;;;;;;;;;;;;;;;;;;5111541;28;19908;-65
2022/01/08 03:42:31;;;;;;;;;;;;;;;;;;5111412;28;20407;-64
2022/01/08 03:44:56;;;;;;;;;;;;;;;;;;5093250;28;19911;-65
2022/01/08 03:49:48;;;;;;;;;;;;;;;;;;5112007;28;19926;-66
2022/01/08 03:52:14;;;;;;;;;;;;;;;;;;5111457;28;19915;-65
2022/01/08 03:54:40;;;;;;;;;;;;;;;;;;5093608;28;20409;-65
2022/01/08 03:57:06;;;;;;;;;;;;;;;;;;5111363;28;19955;-64
2022/01/08 03:59:32;;;;;;;;;;;;;;;;;;5111691;28;19914;-64
2022/01/08 04:01:57;;;;;;;;;;;;;;;;;;5092886;28;19953;-64
2022/01/08 04:04:23;;;;;;;;;;;;;;;;;;5111703;28;19907;-64
2022/01/08 04:06:49;;;;;;;;;;;;;;;;;;5093226;28;19907;-66
2022/01/08 04:09:16;;;;;;;;;;;;;;;;;;5092908;28;19908;-64
2022/01/08 04:11:42;;;;;;;;;;;;;;;;;;5111340;28;20329;-65
2022/01/08 04:14:08;;;;;;;;;;;;;;;;;;5111766;28;19908;-66
2022/01/08 04:16:37;;;;;;;;;;;;;;;;;;5111231;28;20402;-64
2022/01/08 04:19:03;;;;;;;;;;;;;;;;;;5111449;28;20282;-65
2022/01/08 04:23:58;;;;;;;;;;;;;;;;;;5111178;28;19912;-65
2022/01/08 04:26:25;;;;;;;;;;;;;;;;;;5111075;28;19915;-65
2022/01/08 04:28:52;;;;;;;;;;;;;;;;;;5093145;28;20002;-65
2022/01/08 04:31:18;;;;;;;;;;;;;;;;;;5114866;28;19953;-65
2022/01/08 04:33:44;;;;;;;;;;;;;;;;;;5114479;28;19915;-66
2022/01/08 04:36:10;;;;;;;;;;;;;;;;;;5114399;28;19916;-65
2022/01/08 04:38:36;;;;;;;;;;;;;;;;;;5096570;28;20394;-65
2022/01/08 04:41:02;;;;;;;;;;;;;;;;;;5114690;28;20003;-64
2022/01/08 04:43:28;;;;;;;;;;;;;;;;;;5114423;28;20359;-64
2022/01/08 04:45:54;;;;;;;;;;;;;;;;;;5114692;28;19980;-64
2022/01/08 04:48:20;;;;;;;;;;;;;;;;;;5114565;28;19908;-65
2022/01/08 04:50:46;;;;;;;;;;;;;;;;;;5114445;28;19915;-65
2022/01/08 04:53:12;;;;;;;;;;;;;;;;;;5114248;28;20318;-65
2022/01/08 04:55:38;;;;;;;;;;;;;;;;;;5096049;28;19918;-64
2022/01/08 04:58:05;;;;;;;;;;;;;;;;;;5114559;28;19911;-65
2022/01/08 05:00:31;;;;;;;;;;;;;;;;;;5114473;28;19924;-64
2022/01/08 05:02:57;;;;;;;;;;;;;;;;;;5095996;28;20472;-63
2022/01/08 05:05:22;;;;;;;;;;;;;;;;;;5095827;28;20360;-63
2022/01/08 05:07:48;;;;;;;;;;;;;;;;;;5114581;28;19961;-64
2022/01/08 05:10:14;;;;;;;;;;;;;;;;;;5114210;28;19919;-64
2022/01/08 05:12:40;;;;;;;;;;;;;;;;;;5095358;28;19952;-66
2022/01/08 05:15:06;;;;;;;;;;;;;;;;;;5113940;28;19912;-65
2022/01/08 05:17:35;;;;;;;;;;;;;;;;;;5114015;28;19907;-66
2022/01/08 05:20:02;;;;;;;;;;;;;;;;;;5095595;28;20010;-65
2022/01/08 05:22:30;;;;;;;;;;;;;;;;;;5113759;28;20364;-64
2022/01/08 05:24:56;;;;;;;;;;;;;;;;;;5095543;28;20049;-64
2022/01/08 05:27:22;;;;;;;;;;;;;;;;;;5113722;28;19994;-65
2022/01/08 05:29:47;;;;;;;;;;;;;;;;;;5095437;28;19915;-64
2022/01/08 05:32:16;;;;;;;;;;;;;;;;;;5113460;28;19907;-65
2022/01/08 05:34:42;;;;;;;;;;;;;;;;;;5095159;28;19915;-65
2022/01/08 05:37:08;;;;;;;;;;;;;;;;;;5113326;28;19961;-64
2022/01/08 05:39:34;;;;;;;;;;;;;;;;;;5095332;28;20470;-66
2022/01/08 05:42:00;;;;;;;;;;;;;;;;;;5112900;28;19908;-66
2022/01/08 05:44:26;;;;;;;;;;;;;;;;;;5095310;28;20276;-65
2022/01/08 05:46:52;;;;;;;;;;;;;;;;;;5113435;28;19953;-66
2022/01/08 05:49:17;;;;;;;;;;;;;;;;;;5095035;28;19911;-66
2022/01/08 05:51:43;;;;;;;;;;;;;;;;;;5113129;28;19991;-64
2022/01/08 05:54:09;;;;;;;;;;;;;;;;;;5095219;28;20364;-65
2022/01/08 05:56:35;;;;;;;;;;;;;;;;;;5113495;28;19912;-65
2022/01/08 05:59:01;;;;;;;;;;;;;;;;;;5113214;28;19907;-64
2022/01/08 06:01:27;;;;;;;;;;;;;;;;;;5094927;28;20284;-64
2022/01/08 06:03:53;;;;;;;;;;;;;;;;;;5113030;28;19912;-65
2022/01/08 06:06:18;;;;;;;;;;;;;;;;;;5113008;28;19927;-65
2022/01/08 06:08:44;;;;;;;;;;;;;;;;;;5094561;28;20298;-66
2022/01/08 06:11:10;;;;;;;;;;;;;;;;;;5094644;28;19912;-65
2022/01/08 06:13:36;;;;;;;;;;;;;;;;;;5112848;28;20403;-64
2022/01/08 06:16:02;;;;;;;;;;;;;;;;;;5112815;28;19918;-66
2022/01/08 06:18:28;;;;;;;;;;;;;;;;;;5112919;28;19907;-64
2022/01/08 06:20:55;;;;;;;;;;;;;;;;;;5094747;28;20119;-64
2022/01/08 06:23:21;;;;;;;;;;;;;;;;;;5112644;28;19914;-64
2022/01/08 06:25:47;;;;;;;;;;;;;;;;;;5112643;28;20291;-66
2022/01/08 06:28:13;;;;;;;;;;;;;;;;;;5094731;28;20263;-64
2022/01/08 06:30:39;;;;;;;;;;;;;;;;;;5094212;28;19908;-64
2022/01/08 06:33:05;;;;;;;;;;;;;;;;;;5112124;28;20006;-63
2022/01/08 06:35:31;;;;;;;;;;;;;;;;;;5133449;22;19938;-68
2022/01/08 06:37:57;;;;;;;;;;;;;;;;;;5075663;28;19916;-68
2022/01/08 06:40:23;;;;;;;;;;;;;;;;;;5075575;28;19912;-70
2022/01/08 06:42:48;;;;;;;;;;;;;;;;;;5073628;28;19908;-69
2022/01/08 06:45:14;;;;;;;;;;;;;;;;;;5084326;28;19908;-69
2022/01/08 06:47:42;;;;;;;;;;;;;;;;;;5060753;28;19909;-70
2022/01/08 06:50:08;;;;;;;;;;;;;;;;;;5057939;28;19912;-69
2022/01/08 06:52:33;;;;;;;;;;;;;;;;;;5047351;28;19908;-70
2022/01/08 06:54:59;;;;;;;;;;;;;;;;;;5037875;28;19908;-70
2022/01/08 06:57:25;;;;;;;;;;;;;;;;;;5035646;28;19970;-70
2022/01/08 06:59:51;;;;;;;;;;;;;;;;;;5040942;28;19915;-68
2022/01/08 07:02:17;;;;;;;;;;;;;;;;;;5052949;28;20331;-69
2022/01/08 07:04:43;;;;;;;;;;;;;;;;;;5052928;28;19913;-70
2022/01/08 07:07:09;;;;;;;;;;;;;;;;;;5044116;28;19909;-69
2022/01/08 07:09:35;;;;;;;;;;;;;;;;;;5051377;28;20372;-70
2022/01/08 07:12:01;;;;;;;;;;;;;;;;;;5072370;28;19956;-68
2022/01/08 07:14:27;;;;;;;;;;;;;;;;;;5069720;28;19913;-69
2022/01/08 07:16:54;;;;;;;;;;;;;;;;;;5043920;28;19943;-69
2022/01/08 07:19:20;;;;;;;;;;;;;;;;;;5063244;28;19908;-70
2022/01/08 07:21:46;;;;;;;;;;;;;;;;;;5070149;28;19909;-70
2022/01/08 07:24:11;;;;;;;;;;;;;;;;;;5034926;28;19913;-70
2022/01/08 07:26:37;;;;;;;;;;;;;;;;;;5034823;28;19916;-70
2022/01/08 07:29:03;;;;;;;;;;;;;;;;;;5034530;28;19951;-70
2022/01/08 07:31:29;;;;;;;;;;;;;;;;;;5034525;28;19916;-69
2022/01/08 07:33:55;;;;;;;;;;;;;;;;;;5052146;28;19917;-69
2022/01/08 07:36:22;;;;;;;;;;;;;;;;;;5034603;28;19939;-70
2022/01/08 07:38:48;;;;;;;;;;;;;;;;;;5052682;28;19915;-69
2022/01/08 07:41:13;;;;;;;;;;;;;;;;;;5034643;28;20003;-70
2022/01/08 07:43:39;;;;;;;;;;;;;;;;;;5034257;28;19909;-69
2022/01/08 07:46:05;;;;;;;;;;;;;;;;;;5034329;28;20288;-70
2022/01/08 07:48:31;;;;;;;;;;;;;;;;;;5052311;28;20324;-69
2022/01/08 07:50:58;;;;;;;;;;;;;;;;;;5052612;28;19916;-68
2022/01/08 07:53:24;;;;;;;;;;;;;;;;;;5034241;28;19916;-68
2022/01/08 07:55:49;;;;;;;;;;;;;;;;;;5034507;28;19913;-69
2022/01/08 07:58:20;;;;;;;;;;;;;;;;;;5034437;28;20070;-69
2022/01/08 08:00:46;;;;;;;;;;;;;;;;;;5052336;28;19909;-69
2022/01/08 08:03:12;;;;;;;;;;;;;;;;;;5034125;28;19931;-69
2022/01/08 08:05:38;;;;;;;;;;;;;;;;;;5055490;28;19909;-69
2022/01/08 08:08:04;;;;;;;;;;;;;;;;;;5056229;28;20338;-69
2022/01/08 08:10:29;;;;;;;;;;;;;;;;;;5056283;28;19935;-69
2022/01/08 08:12:56;;;;;;;;;;;;;;;;;;5038133;28;20020;-67
2022/01/08 08:15:21;;;;;;;;;;;;;;;;;;5038029;28;19984;-68
2022/01/08 08:17:47;;;;;;;;;;;;;;;;;;5056033;28;20031;-68
2022/01/08 08:20:13;;;;;;;;;;;;;;;;;;5054890;28;19919;-69
2022/01/08 08:22:39;;;;;;;;;;;;;;;;;;5057513;28;19908;-70
2022/01/08 08:25:05;;;;;;;;;;;;;;;;;;5057722;28;19909;-70
2022/01/08 08:27:31;;;;;;;;;;;;;;;;;;5057667;28;19982;-70
2022/01/08 08:29:57;;;;;;;;;;;;;;;;;;5057820;28;19909;-69
2022/01/08 08:32:23;;;;;;;;;;;;;;;;;;5057346;28;19913;-69
2022/01/08 08:34:51;;;;;;;;;;;;;;;;;;5057809;28;19931;-70
2022/01/08 08:37:17;;;;;;;;;;;;;;;;;;5057478;28;20006;-69
2022/01/08 08:39:42;;;;;;;;;;;;;;;;;;5075780;28;20009;-69
2022/01/08 08:42:08;;;;;;;;;;;;;;;;;;5057143;28;19908;-68
2022/01/08 08:44:34;;;;;;;;;;;;;;;;;;5075618;28;19908;-70
2022/01/08 08:47:00;;;;;;;;;;;;;;;;;;5058148;28;19908;-68
2022/01/08 08:49:26;;;;;;;;;;;;;;;;;;5057627;28;19908;-69
2022/01/08 08:51:53;;;;;;;;;;;;;;;;;;5075089;28;19908;-69
2022/01/08 08:54:19;;;;;;;;;;;;;;;;;;5076611;28;19999;-70
2022/01/08 08:56:45;;;;;;;;;;;;;;;;;;5061614;28;19979;-69
2022/01/08 08:59:11;;;;;;;;;;;;;;;;;;5060361;28;20269;-69
2022/01/08 09:01:37;;;;;;;;;;;;;;;;;;5058728;28;19908;-68
2022/01/08 09:04:03;;;;;;;;;;;;;;;;;;5076704;28;20390;-70
2022/01/08 09:06:30;;;;;;;;;;;;;;;;;;5058585;28;19908;-69
2022/01/08 09:08:56;;;;;;;;;;;;;;;;;;5075423;28;19913;-69
2022/01/08 09:11:22;;;;;;;;;;;;;;;;;;5074960;28;20483;-62
2022/01/08 09:13:48;;;;;;;;;;;;;;;;;;5074626;28;19951;-61
2022/01/08 09:16:13;;;;;;;;;;;;;;;;;;5073835;28;19916;-62
2022/01/08 09:18:41;;;;;;;;;;;;;;;;;;5075011;28;19920;-62
2022/01/08 09:21:06;;;;;;;;;;;;;;;;;;5074961;28;19909;-62
2022/01/08 09:23:33;;;;;;;;;;;;;;;;;;5074357;28;20380;-63
2022/01/08 09:25:59;;;;;;;;;;;;;;;;;;5056298;28;19939;-64
2022/01/08 09:28:26;;;;;;;;;;;;;;;;;;5053207;28;19916;-62
2022/01/08 09:30:51;;;;;;;;;;;;;;;;;;5056327;28;19954;-62
2022/01/08 09:33:17;;;;;;;;;;;;;;;;;;5053806;28;19908;-61
2022/01/08 09:35:43;;;;;;;;;;;;;;;;;;5073992;28;19948;-61
2022/01/08 09:38:09;;;;;;;;;;;;;;;;;;5056206;28;19974;-62
2022/01/08 09:40:35;;;;;;;;;;;;;;;;;;5074070;28;19916;-62
2022/01/08 09:43:01;;;;;;;;;;;;;;;;;;5073908;28;19940;-61
2022/01/08 09:45:27;;;;;;;;;;;;;;;;;;5063953;28;20365;-64
2022/01/08 09:47:53;;;;;;;;;;;;;;;;;;5035989;28;19913;-63
2022/01/08 09:50:18;;;;;;;;;;;;;;;;;;5036055;28;19993;-62
2022/01/08 09:52:44;;;;;;;;;;;;;;;;;;5035993;28;19909;-60
2022/01/08 09:55:10;;;;;;;;;;;;;;;;;;5053781;28;19959;-65
2022/01/08 09:57:36;;;;;;;;;;;;;;;;;;5035903;28;20331;-64
2022/01/08 10:00:02;;;;;;;;;;;;;;;;;;5053890;28;19919;-67
2022/01/08 10:02:28;;;;;;;;;;;;;;;;;;5036044;28;19931;-68
2022/01/08 10:04:54;;;;;;;;;;;;;;;;;;5035783;28;19909;-65
2022/01/08 10:07:20;;;;;;;;;;;;;;;;;;5035600;28;20305;-67
2022/01/08 10:09:45;;;;;;;;;;;;;;;;;;5036111;28;20007;-67
2022/01/08 10:12:11;;;;;;;;;;;;;;;;;;5053560;28;19970;-67
2022/01/08 10:17:13;;;;;;;;;;;;;;;;;;5035950;28;20273;-67
2022/01/08 10:17:23;;;;;;;;;;;;;;;;;;5053288;28;20405;-67
2022/01/08 10:19:49;;;;;;;;;;;;;;;;;;5037177;28;19909;-67
2022/01/08 10:22:15;;;;;;;;;;;1.80;99.90;;;;;;5035427;28;19915;-60
2022/01/08 10:24:41;;;;;;;;;;;1.60;99.90;;;;;;5035567;28;19935;-60
2022/01/08 10:27:07;;;;;;;;;;;1.60;99.90;;;;;;5053216;28;19999;-61
2022/01/08 10:29:33;;;;;;;;;;;1.60;99.90;;;;;;5053459;28;19912;-61
2022/01/08 10:31:59;;;;;;;;;;;1.60;99.90;;;;;;5035354;28;19909;-60
2022/01/08 10:34:25;;;;;;;;;;;1.60;99.90;;;;;;5053441;28;19916;-60
2022/01/08 10:36:59;;;;;;;;;;;1.60;99.90;;;;;;5053101;28;20038;-59
2022/01/08 10:39:27;;;;;;;;;;;1.60;99.90;;;;;;5035018;28;20237;-60
2022/01/08 10:41:53;;;;;;;;;;;1.70;99.90;;;;;;5052768;28;19912;-63
2022/01/08 10:44:20;;;;;;;;;;;1.70;99.90;;;;;;5052187;28;20350;-63
2022/01/08 10:46:57;;;;;;;;;;;1.80;99.90;;;;;;5051109;28;19928;-65
2022/01/08 10:49:31;;;;;;;;;;;1.70;99.90;;;;;;5033848;28;19919;-62
2022/01/08 10:51:57;;;;;;;;;;;1.80;99.90;;;;;;5049162;28;19919;-62
2022/01/08 10:54:27;;;;;;;;;;;1.80;99.90;;;;;;5055114;28;20232;-63
2022/01/08 10:56:56;;;;;;;;;;;1.80;99.90;;;;;;5073343;28;19920;-62
2022/01/08 10:59:25;;;;;;;;;;;1.80;99.90;;;;;;5073262;28;19908;-61
2022/01/08 11:01:51;;;;;;;;;;;1.80;99.90;;;;;;5048569;28;19931;-61
2022/01/08 11:04:31;;;;;;;;;;;1.80;99.90;;;;;;5035139;28;20349;-59
2022/01/08 11:06:58;;;;;;;;;;;1.90;99.90;;;;;;5052663;28;19940;-60
2022/01/08 11:09:24;;;;;;;;;;;1.90;99.90;;;;;;5052563;28;19908;-61
2022/01/08 11:11:50;;;;;;;;;;;2.00;99.90;;;;;;5052456;28;20068;-63
2022/01/08 11:14:34;;;;;;;;;;;2.10;99.90;;;;;;5052472;28;19980;-60
2022/01/08 11:16:59;;;;;;;;;;;2.20;99.90;;;;;;5054620;28;20011;-61
2022/01/08 11:19:26;;;;;;;;;;;2.20;99.90;;;;;;5052496;28;19948;-61
2022/01/08 11:21:52;;;;;;;;;;;2.20;99.90;;;;;;5052545;28;19909;-61
2022/01/08 11:24:18;;;;;;;;;;;2.20;99.90;;;;;;5052592;28;20280;-60
2022/01/08 11:26:44;;;;;;;;;;;2.30;99.90;;;;;;5052680;28;20560;-60
2022/01/08 11:29:10;;;;;;;;;;;2.30;99.90;;;;;;5052544;28;19916;-61
2022/01/08 11:31:36;;;;;;;;;;;2.30;99.90;;;;;;5052583;28;19909;-61
2022/01/08 11:34:08;;;;;;;;;;;2.40;99.90;;;;;;5052927;28;19931;-62
2022/01/08 11:36:34;;;;;;;;;;;2.30;99.90;;;;;;5051177;28;20435;-63
2022/01/08 11:39:00;;;;;;;;;;;2.40;99.90;;;;;;5050617;28;19909;-62
2022/01/08 11:41:25;;;;;;;;;;;2.40;99.90;;;;;;5034286;28;19966;-61
2022/01/08 11:43:53;;;;;;;;;;;2.50;99.90;;;;;;5052307;28;19987;-61
2022/01/08 11:46:19;;;;;;;;;;;2.50;99.90;;;;;;5051080;28;20444;-62
2022/01/08 11:48:46;;;;;;;;;;;2.50;99.90;;;;;;5072267;28;19956;-63
2022/01/08 11:51:31;;;;;;;;;;;2.60;99.90;;;;;;5072176;28;19952;-62
2022/01/08 11:53:58;;;;;;;;;;;2.60;99.90;;;;;;5071912;28;20022;-62
2022/01/08 11:56:28;;;;;;;;;;;2.60;99.90;;;;;;5072122;28;19919;-62
2022/01/08 11:59:04;;;;;;;;;;;2.70;99.90;;;;;;5054180;28;19908;-61
2022/01/08 12:01:29;;;;;;;;;;;2.80;99.90;;;;;;5054206;28;19909;-62
2022/01/08 12:03:55;;;;;;;;;;;2.80;99.90;;;;;;5072166;28;19908;-59
2022/01/08 12:06:21;;;;;;;;;;;2.80;99.90;;;;;;5071871;28;19908;-60
2022/01/08 12:08:47;;;;;;;;;;;2.90;99.90;;;;;;5072221;28;19916;-61
2022/01/08 12:11:12;;;;;;;;;;;2.90;99.90;;;;;;5072194;28;19913;-60
2022/01/08 12:13:48;;;;;;;;;;;3.00;99.90;;;;;;5071809;28;19947;-62
2022/01/08 12:16:33;;;;;;;;;;;3.10;99.90;;;;;;5072032;28;20009;-60
2022/01/08 12:18:59;;;;;;;;;;;3.10;99.90;;;;;;5072086;28;19909;-62
2022/01/08 12:21:51;;;;;;;;;;;3.20;99.90;;;;;;5071999;28;19931;-63
2022/01/08 12:24:25;;;;;;;;;;;3.20;99.90;;;;;;5050423;28;19915;-61
2022/01/08 12:26:51;;;;;;;;;;;3.20;99.90;;;;;;5071778;28;19931;-61
2022/01/08 12:29:26;;;;;;;;;;;3.20;99.90;;;;;;5053952;28;19948;-62
2022/01/08 12:31:51;;;;;;;;;;;3.30;99.90;;;;;;5071496;28;20058;-63
2022/01/08 12:34:21;;;;;;;;;;;3.50;99.90;;;;;;5071858;28;19936;-63
2022/01/08 12:36:57;;;;;;;;;;;3.50;99.90;;;;;;5072906;22;19925;-59
2022/01/08 12:39:23;;;;;;;;;;;;;;;;;;5050425;28;20370;-59
2022/01/08 12:41:48;;;;;;;;;;;;;;;;;;5051457;28;19916;-58
2022/01/08 12:44:14;;;;;;;;;;;;;;;;;;5049997;28;19975;-58
2022/01/08 12:46:40;;;;;;;;;;;;;;;;;;5031705;28;20012;-57
2022/01/08 12:49:06;;;;;;;;;;;;;;;;;;4684968;28;10000567;-60
2022/01/08 12:51:32;;;;;;;;;;;;;;;;;;5044526;28;19913;-61
2022/01/08 12:53:58;;;;;;;;;;;;;;;;;;5043035;28;20296;-61
2022/01/08 12:56:24;;;;;;;;;;;;;;;;;;5051337;28;19951;-60
2022/01/08 12:58:50;;;;;;;;;;;;;;;;;;5036202;28;19909;-58
2022/01/08 13:01:16;;;;;;;;;;;;;;;;;;5030861;28;19974;-58
2022/01/08 13:03:41;;;;;;;;;;;;;;;;;;5032499;28;20019;-59
2022/01/08 13:06:07;;;;;;;;;;;;;;;;;;5038986;28;19912;-55
2022/01/08 13:08:33;;;;;;;;;;;;;;;;;;5052454;28;20407;-60
2022/01/08 13:11:02;;;;;;;;;;;;;;;;;;5052316;28;19909;-60
2022/01/08 13:13:28;;;;;;;;;;;;;;;;;;5050489;28;19920;-59
2022/01/08 13:15:54;;;;;;;;;;;;;;;;;;5052300;28;20302;-58
2022/01/08 13:18:20;;;;;;;;;;;;;;;;;;5050777;28;19916;-60
2022/01/08 13:20:46;;;;;;;;;;;;;;;;;;5051702;28;19920;-58
2022/01/08 13:23:12;;;;;;;;;;;;;;;;;;5043735;28;19920;-58
2022/01/08 13:25:38;;;;;;;;;;;;;;;;;;5030669;28;19913;-60
2022/01/08 13:28:03;;;;;;;;;;;3.50;99.90;;;;;;5031965;28;19909;-59
2022/01/08 13:30:29;;;;;;;;;;;4.60;99.90;;;;;;5031643;28;20663;-60
2022/01/08 13:32:54;;;;;;;;;;;;;;;;;;5031110;28;19917;-60
2022/01/08 13:35:20;;;;;;;;;;;;;;;;;;5030114;28;20000;-57
2022/01/08 13:37:46;;;;;;;;;;;;;;;;;;5029366;28;20284;-58
2022/01/08 13:40:12;;;;;;;;;;;;;;;;;;5030628;28;19989;-58
2022/01/08 13:42:38;;;;;;;;;;;;;;;;;;5031275;28;19910;-61
2022/01/08 13:45:04;;;;;;;;;;;;;;;;;;5030077;28;19919;-62
2022/01/08 13:47:30;;;;;;;;;;;;;;;;;;5031037;28;19959;-57
2022/01/08 13:49:56;;;;;;;;;;;;;;;;;;5041810;28;19979;-55
2022/01/08 13:52:45;;;;;;;;;;;;;;;;;;5050855;28;19909;-59
2022/01/08 13:55:08;;;;;;;;;;;;;;;;;;5053003;28;19955;-58
2022/01/08 13:57:34;;;;;;;;;;;;;;;;;;5045594;28;19948;-57
2022/01/08 14:00:00;;;;;;;;;;;;;;;;;;5032810;28;19971;-58
2022/01/08 14:02:26;;;;;;;;;;;;;;;;;;5032990;28;19909;-57
2022/01/08 14:04:53;;;;;;;;;;;;;;;;;;5033986;28;20307;-56
2022/01/08 14:07:19;;;;;;;;;;;;;;;;;;5033821;28;20007;-58
2022/01/08 14:09:45;;;;;;;;;;;;;;;;;;5032566;28;19972;-60
2022/01/08 14:12:11;;;;;;;;;;;;;;;;;;5033787;28;20343;-57
2022/01/08 14:14:37;;;;;;;;;;;;;;;;;;5033973;28;19912;-53
2022/01/08 14:17:03;;;;;;;;;;;;;;;;;;5032521;28;20008;-58
2022/01/08 14:19:29;;;;;;;;;;;;;;;;;;5032431;28;19932;-59
2022/01/08 14:21:54;;;;;;;;;;;;;;;;;;5033501;28;19913;-59
2022/01/08 14:24:29;;;;;;;;;;;;;;;;;;4990852;28;9999889;-57
2022/01/08 14:26:55;;;;;;;;;;;;;;;;;;5050481;28;19917;-60
2022/01/08 14:29:21;;;;;;;;;;;;;;;;;;5050849;28;19913;-60
2022/01/08 14:31:47;;;;;;;;;;;;;;;;;;5050114;28;19954;-57
2022/01/08 14:34:14;;;;;;;;;;;;;;;;;;5048810;28;19913;-59
2022/01/08 14:36:40;;;;;;;;;;;;;;;;;;5050155;28;20335;-55
2022/01/08 14:39:06;;;;;;;;;;;;;;;;;;5050328;28;20295;-52
2022/01/08 14:41:32;;;;;;;;;;;;;;;;;;5048888;28;19912;-58
2022/01/08 14:43:58;;;;;;;;;;;;;;;;;;5048703;28;19909;-58
2022/01/08 14:46:24;;;;;;;;;;;;;;;;;;5050344;28;19909;-59
2022/01/08 14:48:50;;;;;;;;;;;;;;;;;;5049855;28;19909;-54
2022/01/08 14:51:17;;;;;;;;;;;;;;;;;;5050451;28;19909;-56
2022/01/08 14:53:43;;;;;;;;;;;;;;;;;;5048262;28;19924;-60
2022/01/08 14:56:09;;;;;;;;;;;;;;;;;;5037665;28;19920;-60
2022/01/08 14:58:38;;;;;;;;;;;;;;;;;;5045037;28;19916;-60
2022/01/08 15:01:04;;;;;;;;;;;;;;;;;;5050004;28;19913;-57
2022/01/08 15:03:30;;;;;;;;;;;;;;;;;;5064856;28;19913;-60
2022/01/08 15:05:56;;;;;;;;;;;;;;;;;;5064980;28;20000;-59
2022/01/08 15:08:21;;;;;;;;;;;;;;;;;;5065418;28;20277;-58
2022/01/08 15:10:47;;;;;;;;;;;;;;;;;;5065600;28;19913;-57
2022/01/08 15:13:13;;;;;;;;;;;;;;;;;;5064176;28;20016;-59
2022/01/08 15:15:39;;;;;;;;;;;;;;;;;;5048945;28;19916;-59
2022/01/08 15:18:05;;;;;;;;;;;;;;;;;;5050224;28;19987;-57
2022/01/08 15:20:31;;;;;;;;;;;;;;;;;;5068069;28;19909;-59
2022/01/08 15:22:57;;;;;;;;;;;4.70;99.90;;;;;;5067418;28;19917;-58
2022/01/08 15:25:22;;;;;;;;;;;3.80;99.90;;;;;;5052446;28;19908;-59
2022/01/08 15:27:49;;;;;;;;;;;3.80;99.90;;;;;;5052441;28;19909;-56
2022/01/08 15:30:15;;;;;;;;;;;3.80;99.90;;;;;;5037371;28;19916;-59
2022/01/08 15:32:41;;;;;;;;;;;3.80;99.90;;;;;;5029833;28;20369;-59
2022/01/08 15:35:06;;;;;;;;;;;3.80;99.90;;;;;;4717174;28;9999675;-61
2022/01/08 15:37:32;;;;;;;;;;;3.80;99.90;;;;;;5033257;28;19927;-60
2022/01/08 15:39:57;;;;;;;;;;;3.80;99.90;;;;;;5048334;28;19924;-61
2022/01/08 15:42:23;;;;;;;;;;;3.80;99.90;;;;;;5048354;28;19912;-61
2022/01/08 15:44:49;;;;;;;;;;;3.80;99.90;;;;;;5048820;28;20404;-63
2022/01/08 15:47:15;;;;;;;;;;;3.80;99.90;;;;;;5049244;28;20398;-60
2022/01/08 15:49:40;;;;;;;;;;;3.80;99.90;;;;;;5047805;28;19970;-60
2022/01/08 15:52:06;;;;;;;;;;;3.70;99.90;;;;;;5049011;28;20016;-62
2022/01/08 15:54:34;;;;;;;;;;;3.80;99.90;;;;;;5049076;28;19913;-59
2022/01/08 15:57:00;;;;;;;;;;;;;;;;;;5045464;28;19924;-61
2022/01/08 15:59:26;;;;;;;;;;;;;;;;;;5028016;28;19909;-64
2022/01/08 16:01:52;;;;;;;;;;;;;;;;;;5029179;28;19955;-60
2022/01/08 16:04:24;;;;;;;;;;;;;;;;;;5027685;28;20040;-63
2022/01/08 16:06:52;;;;;;;;;;;;;;;;;;5029032;28;19917;-63
2022/01/08 16:09:18;;;;;;;;;;;;;;;;;;5028343;28;19913;-63
2022/01/08 16:11:44;;;;;;;;;;;;;;;;;;5027836;28;19935;-59
2022/01/08 16:14:10;;;;;;;;;;;;;;;;;;5029467;28;20324;-61
2022/01/08 16:16:36;;;;;;;;;;;;;;;;;;5028621;28;20003;-62
2022/01/08 16:19:02;;;;;;;;;;;;;;;;;;5028907;28;19975;-60
2022/01/08 16:21:27;;;;;;;;;;;3.70;99.90;;;;;;5046189;28;20317;-61
2022/01/08 16:23:53;;;;;;;;;;;;;;;;;;5044163;28;20294;-58
2022/01/08 16:26:19;;;;;;;;;;;;;;;;;;5033363;28;20376;-60
2022/01/08 16:28:45;;;;;;;;;;;;;;;;;;5032387;28;19917;-59
2022/01/08 16:31:10;;;;;;;;;;;2.80;99.90;;;;;;5031370;28;19913;-57
2022/01/08 16:33:36;;;;;;;;;;;2.70;99.90;;;;;;5030822;28;20016;-60